createdAt,value
2022-09-17T00:00:15.041Z,93809.28
2022-09-17T00:01:19.039Z,93897.22
2022-09-17T00:02:15.773Z,93934.63
2022-09-17T00:03:12.591Z,93873.91
2022-09-17T00:04:10.729Z,93870.94
2022-09-17T00:05:07.924Z,93902.78
2022-09-17T00:06:08.343Z,93824.66
2022-09-17T00:07:05.030Z,93933.03
2022-09-17T00:08:02.014Z,93887.25
2022-09-17T00:08:58.751Z,93914.13
2022-09-17T00:09:55.486Z,93936.13
2022-09-17T00:10:52.266Z,93934.75
2022-09-17T00:11:48.980Z,93786.31
2022-09-17T00:12:46.542Z,93778.06
2022-09-17T00:13:44.447Z,93903.78
2022-09-17T00:14:41.486Z,93886.91
2022-09-17T00:15:43.879Z,93785.91
2022-09-17T00:16:44.080Z,93794.97
2022-09-17T00:17:41.844Z,93827.63
2022-09-17T00:18:41.629Z,93857.94
2022-09-17T00:19:39.556Z,93904.09
2022-09-17T00:20:44.388Z,93796.09
2022-09-17T00:21:41.867Z,93881.59
2022-09-17T00:22:39.938Z,93836.81
2022-09-17T00:23:36.726Z,93642.00
2022-09-17T00:24:33.468Z,93915.25
2022-09-17T00:25:30.421Z,93916.94
2022-09-17T00:26:28.561Z,93800.75
2022-09-17T00:27:25.272Z,93896.59
2022-09-17T00:28:22.124Z,93891.84
2022-09-17T00:29:19.004Z,93906.16
2022-09-17T00:30:15.750Z,93911.63
2022-09-17T00:31:12.540Z,93907.53
2022-09-17T00:32:09.810Z,93668.03
2022-09-17T00:33:06.578Z,93895.75
2022-09-17T00:34:05.373Z,93916.25
2022-09-17T00:35:02.462Z,93844.63
2022-09-17T00:36:01.227Z,93928.97
2022-09-17T00:36:57.957Z,93915.13
2022-09-17T00:37:54.703Z,93929.63
2022-09-17T00:38:53.173Z,93915.38
2022-09-17T00:39:50.048Z,93844.41
2022-09-17T00:40:46.770Z,93907.53
2022-09-17T00:41:43.980Z,93906.09
2022-09-17T00:42:40.667Z,93875.50
2022-09-17T00:43:51.079Z,93903.22
2022-09-17T00:44:50.882Z,93908.69
2022-09-17T00:45:47.825Z,93914.50
2022-09-17T00:46:45.946Z,93773.50
2022-09-17T00:47:50.137Z,93913.78
2022-09-17T00:48:47.560Z,93833.03
2022-09-17T00:49:46.454Z,93936.53
2022-09-17T00:50:44.737Z,93950.50
2022-09-17T00:52:00.779Z,93923.28
2022-09-17T00:53:08.086Z,93873.38
2022-09-17T00:54:08.953Z,93785.19
2022-09-17T00:55:25.271Z,93936.88
2022-09-17T00:56:32.749Z,93921.28
2022-09-17T00:57:31.408Z,93887.81
2022-09-17T00:58:34.330Z,93940.50
2022-09-17T00:59:33.842Z,93889.03
2022-09-17T01:00:31.601Z,93885.69
2022-09-17T01:01:28.994Z,93913.28
2022-09-17T01:02:26.807Z,93942.56
2022-09-17T01:03:23.612Z,93908.91
2022-09-17T01:04:23.060Z,93926.00
2022-09-17T01:05:33.639Z,93892.19
2022-09-17T01:06:32.993Z,93917.59
2022-09-17T01:07:35.343Z,93918.38
2022-09-17T01:08:49.061Z,93855.63
2022-09-17T01:09:59.529Z,93900.25
2022-09-17T01:11:27.206Z,93907.19
2022-09-17T01:12:26.538Z,93906.19
2022-09-17T01:13:52.078Z,93917.44
2022-09-17T01:15:08.144Z,93900.34
2022-09-17T01:16:04.929Z,93897.78
2022-09-17T01:17:01.626Z,93906.13
2022-09-17T01:18:32.252Z,93779.34
2022-09-17T01:19:50.626Z,93916.59
2022-09-17T01:21:10.895Z,93896.00
2022-09-17T01:22:37.287Z,93911.63
2022-09-17T01:23:49.111Z,93913.06
2022-09-17T01:24:55.658Z,93912.81
2022-09-17T01:26:17.052Z,93902.50
2022-09-17T01:27:54.796Z,93929.59
2022-09-17T01:29:09.293Z,93904.53
2022-09-17T01:30:15.396Z,93905.63
2022-09-17T01:31:18.078Z,93903.47
2022-09-17T01:32:31.201Z,93887.59
2022-09-17T01:33:49.534Z,93888.03
2022-09-17T01:34:58.749Z,93879.09
2022-09-17T01:36:17.505Z,93870.88
2022-09-17T01:37:27.717Z,93875.72
2022-09-17T01:38:40.881Z,93697.28
2022-09-17T01:39:50.301Z,93884.09
2022-09-17T01:40:52.458Z,93876.94
2022-09-17T01:42:16.737Z,93872.44
2022-09-17T01:43:39.434Z,93837.34
2022-09-17T01:44:42.802Z,93899.50
2022-09-17T01:45:48.536Z,93891.13
2022-09-17T01:46:56.268Z,93926.00
2022-09-17T01:48:07.588Z,93860.88
2022-09-17T01:49:08.230Z,93886.72
2022-09-17T01:50:12.539Z,93892.97
2022-09-17T01:51:12.955Z,93879.00
2022-09-17T01:52:14.372Z,93902.78
2022-09-17T01:53:15.252Z,93911.50
2022-09-17T01:54:49.123Z,93930.94
2022-09-17T01:55:51.383Z,93886.44
2022-09-17T01:57:02.066Z,93904.84
2022-09-17T01:58:16.693Z,93891.22
2022-09-17T01:59:22.335Z,93892.81
2022-09-17T02:00:20.261Z,93884.38
2022-09-17T02:01:22.754Z,93865.06
2022-09-17T02:02:45.545Z,93853.50
2022-09-17T02:04:24.350Z,93842.41
2022-09-17T02:05:21.158Z,93838.81
2022-09-17T02:06:27.152Z,93838.03
2022-09-17T02:07:25.998Z,93834.69
2022-09-17T02:08:26.573Z,93821.31
2022-09-17T02:09:36.900Z,93781.94
2022-09-17T02:10:41.404Z,93796.97
2022-09-17T02:11:44.973Z,93737.63
2022-09-17T02:12:49.124Z,93779.59
2022-09-17T02:13:52.189Z,93773.41
2022-09-17T02:14:54.052Z,93779.06
2022-09-17T02:16:02.354Z,93770.31
2022-09-17T02:17:12.552Z,93765.47
2022-09-17T02:18:32.533Z,93742.09
2022-09-17T02:19:33.221Z,93786.31
2022-09-17T02:20:42.648Z,93773.47
2022-09-17T02:21:57.840Z,93768.78
2022-09-17T02:23:02.785Z,93766.13
2022-09-17T02:24:22.429Z,93639.22
2022-09-17T02:25:34.270Z,93804.69
2022-09-17T02:26:36.234Z,93794.09
2022-09-17T02:27:46.121Z,93818.13
2022-09-17T02:28:51.333Z,93825.44
2022-09-17T02:29:48.928Z,93848.09
2022-09-17T02:30:45.992Z,93861.31
2022-09-17T02:31:42.811Z,93870.78
2022-09-17T02:32:39.830Z,93852.63
2022-09-17T02:33:40.455Z,93865.25
2022-09-17T02:34:37.444Z,93722.66
2022-09-17T02:35:34.382Z,93698.91
2022-09-17T02:36:32.189Z,93817.25
2022-09-17T02:37:29.459Z,93759.28
2022-09-17T02:38:28.814Z,93712.16
2022-09-17T02:39:26.593Z,93795.19
2022-09-17T02:40:31.436Z,93792.75
2022-09-17T02:41:51.377Z,93778.69
2022-09-17T02:43:20.195Z,93789.56
2022-09-17T02:44:45.654Z,93793.72
2022-09-17T02:45:48.090Z,93789.16
2022-09-17T02:47:08.001Z,93768.47
2022-09-17T02:48:57.199Z,93779.00
2022-09-17T02:50:18.509Z,93792.94
2022-09-17T02:51:56.159Z,93719.94
2022-09-17T02:53:26.454Z,93746.31
2022-09-17T02:54:30.191Z,93747.16
2022-09-17T02:55:54.485Z,93714.81
2022-09-17T02:57:13.456Z,93714.19
2022-09-17T02:58:33.526Z,93731.84
2022-09-17T02:59:43.057Z,93688.63
2022-09-17T03:00:41.219Z,93767.19
2022-09-17T03:01:44.817Z,93758.41
2022-09-17T03:03:01.895Z,93694.75
2022-09-17T03:04:04.368Z,93761.84
2022-09-17T03:05:04.178Z,93625.78
2022-09-17T03:06:01.174Z,93785.03
2022-09-17T03:06:59.611Z,93754.22
2022-09-17T03:07:59.168Z,93808.88
2022-09-17T03:08:57.282Z,93758.56
2022-09-17T03:09:53.963Z,93795.88
2022-09-17T03:10:50.729Z,93796.22
2022-09-17T03:11:47.836Z,93734.38
2022-09-17T03:12:44.568Z,93742.34
2022-09-17T03:13:41.868Z,93604.56
2022-09-17T03:14:38.585Z,93763.88
2022-09-17T03:15:35.479Z,93740.19
2022-09-17T03:16:32.545Z,93776.25
2022-09-17T03:17:29.990Z,93705.25
2022-09-17T03:18:26.681Z,93773.44
2022-09-17T03:19:23.675Z,93761.66
2022-09-17T03:20:20.392Z,93715.53
2022-09-17T03:21:17.085Z,93744.75
2022-09-17T03:22:13.799Z,93710.59
2022-09-17T03:23:10.505Z,93723.59
2022-09-17T03:24:08.200Z,93695.44
2022-09-17T03:25:05.416Z,93718.34
2022-09-17T03:26:02.290Z,93657.56
2022-09-17T03:26:58.984Z,93726.34
2022-09-17T03:27:55.842Z,93742.59
2022-09-17T03:28:53.076Z,93661.16
2022-09-17T03:29:49.756Z,93676.09
2022-09-17T03:30:47.231Z,93726.97
2022-09-17T03:31:44.227Z,93717.69
2022-09-17T03:32:41.000Z,93690.66
2022-09-17T03:33:37.678Z,93725.81
2022-09-17T03:34:34.370Z,93716.47
2022-09-17T03:35:31.050Z,93736.88
2022-09-17T03:36:28.459Z,93668.00
2022-09-17T03:37:25.477Z,93687.06
2022-09-17T03:38:22.392Z,93749.44
2022-09-17T03:39:19.166Z,93740.66
2022-09-17T03:40:15.990Z,93736.19
2022-09-17T03:41:12.779Z,93738.91
2022-09-17T03:42:09.452Z,93737.91
2022-09-17T03:43:06.891Z,93721.22
2022-09-17T03:44:03.612Z,93765.69
2022-09-17T03:45:00.449Z,93759.00
2022-09-17T03:45:57.154Z,93594.38
2022-09-17T03:46:53.908Z,93745.44
2022-09-17T03:47:50.652Z,93769.16
2022-09-17T03:48:47.440Z,93655.09
2022-09-17T03:49:44.112Z,93667.41
2022-09-17T03:50:40.779Z,93749.69
2022-09-17T03:51:37.513Z,93724.88
2022-09-17T03:52:34.417Z,93723.88
2022-09-17T03:53:31.870Z,93702.72
2022-09-17T03:54:28.626Z,93730.16
2022-09-17T03:55:25.338Z,93567.00
2022-09-17T03:56:22.045Z,93581.81
2022-09-17T03:57:18.979Z,93761.28
2022-09-17T03:58:15.787Z,93750.41
2022-09-17T03:59:12.623Z,93754.44
2022-09-17T04:00:12.111Z,93638.94
2022-09-17T04:01:08.869Z,93763.09
2022-09-17T04:02:06.104Z,93762.88
2022-09-17T04:03:05.706Z,93615.66
2022-09-17T04:04:03.748Z,93753.59
2022-09-17T04:05:00.448Z,93633.09
2022-09-17T04:05:57.144Z,93766.38
2022-09-17T04:06:54.563Z,93748.28
2022-09-17T04:07:51.269Z,93763.50
2022-09-17T04:08:48.123Z,93795.75
2022-09-17T04:09:44.789Z,93680.84
2022-09-17T04:10:41.542Z,93800.34
2022-09-17T04:11:38.261Z,93802.88
2022-09-17T04:12:35.060Z,93742.03
2022-09-17T04:13:31.817Z,93793.44
2022-09-17T04:14:28.577Z,93800.56
2022-09-17T04:15:25.406Z,93800.88
2022-09-17T04:16:22.340Z,93672.38
2022-09-17T04:17:19.869Z,93802.19
2022-09-17T04:18:16.667Z,93832.22
2022-09-17T04:19:13.433Z,93687.94
2022-09-17T04:20:10.550Z,93842.53
2022-09-17T04:21:07.498Z,93840.22
2022-09-17T04:22:04.961Z,93831.56
2022-09-17T04:23:01.926Z,93737.19
2022-09-17T04:23:59.951Z,93695.22
2022-09-17T04:24:56.678Z,93754.56
2022-09-17T04:25:53.344Z,93836.59
2022-09-17T04:26:50.044Z,93849.28
2022-09-17T04:27:47.731Z,93861.00
2022-09-17T04:28:44.420Z,93839.66
2022-09-17T04:29:41.172Z,93847.50
2022-09-17T04:30:38.161Z,93807.66
2022-09-17T04:31:34.920Z,93729.44
2022-09-17T04:32:31.719Z,93860.59
2022-09-17T04:33:28.435Z,93849.31
2022-09-17T04:34:25.133Z,93880.25
2022-09-17T04:35:21.884Z,93791.44
2022-09-17T04:36:18.646Z,93874.63
2022-09-17T04:37:15.387Z,93858.06
2022-09-17T04:38:13.818Z,93856.72
2022-09-17T04:39:10.650Z,93879.91
2022-09-17T04:40:08.398Z,93895.00
2022-09-17T04:41:07.675Z,93863.34
2022-09-17T04:42:04.569Z,93836.69
2022-09-17T04:43:03.136Z,93887.41
2022-09-17T04:43:59.921Z,93887.50
2022-09-17T04:44:57.904Z,93798.41
2022-09-17T04:45:54.727Z,93822.19
2022-09-17T04:46:51.584Z,93842.25
2022-09-17T04:47:50.906Z,93874.00
2022-09-17T04:48:47.572Z,93851.53
2022-09-17T04:49:44.261Z,93881.41
2022-09-17T04:50:40.920Z,93912.88
2022-09-17T04:51:37.598Z,93893.41
2022-09-17T04:52:34.278Z,93928.88
2022-09-17T04:53:31.005Z,93873.41
2022-09-17T04:54:27.700Z,93803.75
2022-09-17T04:55:24.605Z,93936.59
2022-09-17T04:56:21.305Z,93932.63
2022-09-17T04:57:18.048Z,93964.41
2022-09-17T04:58:14.774Z,93950.78
2022-09-17T04:59:11.435Z,93964.44
2022-09-17T05:00:10.238Z,93963.72
2022-09-17T05:01:07.219Z,93896.94
2022-09-17T05:02:04.101Z,93928.47
2022-09-17T05:03:01.341Z,93908.25
2022-09-17T05:03:58.126Z,93933.00
2022-09-17T05:04:56.886Z,93930.88
2022-09-17T05:05:53.600Z,93884.59
2022-09-17T05:06:50.643Z,93874.88
2022-09-17T05:07:47.425Z,93863.13
2022-09-17T05:08:44.106Z,93894.50
2022-09-17T05:09:41.542Z,93907.63
2022-09-17T05:10:38.302Z,93920.22
2022-09-17T05:11:34.991Z,93880.97
2022-09-17T05:12:34.485Z,93891.50
2022-09-17T05:13:31.573Z,93896.72
2022-09-17T05:14:28.267Z,93726.66
2022-09-17T05:15:26.519Z,93860.09
2022-09-17T05:16:23.340Z,93882.84
2022-09-17T05:17:20.114Z,93755.63
2022-09-17T05:18:16.828Z,93903.56
2022-09-17T05:19:13.528Z,93885.50
2022-09-17T05:20:11.189Z,93881.97
2022-09-17T05:21:07.920Z,93878.16
2022-09-17T05:22:04.671Z,93890.63
2022-09-17T05:23:01.457Z,93894.59
2022-09-17T05:23:58.371Z,93866.97
2022-09-17T05:24:55.057Z,93871.59
2022-09-17T05:25:52.885Z,93863.25
2022-09-17T05:26:49.675Z,93843.66
2022-09-17T05:27:46.647Z,93847.13
2022-09-17T05:28:43.394Z,93884.78
2022-09-17T05:29:40.083Z,93884.78
2022-09-17T05:30:36.927Z,93852.38
2022-09-17T05:31:33.769Z,93859.94
2022-09-17T05:32:30.609Z,93872.41
2022-09-17T05:33:27.434Z,93837.63
2022-09-17T05:34:24.137Z,93845.97
2022-09-17T05:35:20.808Z,93896.03
2022-09-17T05:36:17.600Z,93801.00
2022-09-17T05:37:14.299Z,93775.31
2022-09-17T05:38:11.082Z,93854.03
2022-09-17T05:39:07.877Z,93858.38
2022-09-17T05:40:07.362Z,93844.47
2022-09-17T05:41:07.770Z,93880.69
2022-09-17T05:42:04.591Z,93887.97
2022-09-17T05:43:04.156Z,93812.00
2022-09-17T05:44:00.983Z,93759.34
2022-09-17T05:44:57.784Z,93902.50
2022-09-17T05:45:54.702Z,93639.00
2022-09-17T05:46:53.425Z,93881.31
2022-09-17T05:47:58.076Z,93897.31
2022-09-17T05:48:58.235Z,93879.03
2022-09-17T05:49:54.911Z,93884.34
2022-09-17T05:50:51.701Z,93853.59
2022-09-17T05:51:51.167Z,93871.31
2022-09-17T05:52:47.868Z,93878.50
2022-09-17T05:53:44.580Z,93860.59
2022-09-17T05:54:41.316Z,93881.53
2022-09-17T05:55:39.051Z,93831.72
2022-09-17T05:56:35.919Z,93840.72
2022-09-17T05:57:32.625Z,93786.69
2022-09-17T05:58:29.653Z,93892.06
2022-09-17T05:59:26.391Z,93879.31
2022-09-17T06:00:23.132Z,93859.94
2022-09-17T06:01:19.818Z,93903.47
2022-09-17T06:02:16.578Z,93897.75
2022-09-17T06:03:15.938Z,93865.50
2022-09-17T06:04:12.991Z,93899.53
2022-09-17T06:05:10.402Z,93907.47
2022-09-17T06:06:07.208Z,93839.19
2022-09-17T06:07:07.386Z,93899.34
2022-09-17T06:08:04.114Z,93920.66
2022-09-17T06:09:01.834Z,93909.94
2022-09-17T06:09:58.595Z,93940.41
2022-09-17T06:10:58.953Z,93937.25
2022-09-17T06:11:58.403Z,93936.50
2022-09-17T06:13:00.902Z,93926.88
2022-09-17T06:13:57.659Z,93942.63
2022-09-17T06:14:54.363Z,93901.63
2022-09-17T06:15:55.000Z,93963.16
2022-09-17T06:16:51.766Z,93974.34
2022-09-17T06:17:48.561Z,93919.22
2022-09-17T06:18:45.253Z,93955.53
2022-09-17T06:19:41.934Z,93800.41
2022-09-17T06:20:38.626Z,93870.59
2022-09-17T06:21:35.321Z,93896.50
2022-09-17T06:22:32.117Z,93930.63
2022-09-17T06:23:35.057Z,93958.78
2022-09-17T06:24:32.955Z,93981.84
2022-09-17T06:25:29.674Z,93969.38
2022-09-17T06:26:26.354Z,93962.75
2022-09-17T06:27:23.118Z,93973.22
2022-09-17T06:28:19.893Z,93962.00
2022-09-17T06:29:16.625Z,93946.81
2022-09-17T06:30:13.352Z,93971.75
2022-09-17T06:31:12.123Z,93989.09
2022-09-17T06:32:12.888Z,93961.88
2022-09-17T06:33:09.563Z,93974.69
2022-09-17T06:34:06.305Z,93984.91
2022-09-17T06:35:03.250Z,93977.31
2022-09-17T06:36:09.623Z,93901.72
2022-09-17T06:37:09.241Z,93985.63
2022-09-17T06:38:06.260Z,93947.81
2022-09-17T06:39:03.112Z,93820.78
2022-09-17T06:39:59.928Z,93845.63
2022-09-17T06:40:56.840Z,93937.09
2022-09-17T06:41:53.591Z,93955.53
2022-09-17T06:42:50.297Z,93951.78
2022-09-17T06:43:47.004Z,93962.31
2022-09-17T06:44:43.869Z,93945.91
2022-09-17T06:45:40.693Z,93944.50
2022-09-17T06:46:37.648Z,93910.22
2022-09-17T06:47:34.588Z,93937.38
2022-09-17T06:48:35.241Z,93908.41
2022-09-17T06:49:31.941Z,93937.25
2022-09-17T06:50:28.663Z,93928.66
2022-09-17T06:51:25.346Z,93927.03
2022-09-17T06:52:22.093Z,93929.91
2022-09-17T06:53:20.035Z,93937.97
2022-09-17T06:54:16.733Z,93787.56
2022-09-17T06:55:13.734Z,93935.56
2022-09-17T06:56:10.898Z,93915.56
2022-09-17T06:57:07.608Z,93810.59
2022-09-17T06:58:04.383Z,93910.81
2022-09-17T06:59:01.561Z,93901.56
2022-09-17T06:59:58.291Z,93864.31
2022-09-17T07:01:00.633Z,93873.84
2022-09-17T07:01:57.894Z,93862.19
2022-09-17T07:02:58.540Z,93866.78
2022-09-17T07:03:55.432Z,93825.59
2022-09-17T07:04:52.135Z,93902.59
2022-09-17T07:05:48.841Z,93914.56
2022-09-17T07:06:46.310Z,93771.16
2022-09-17T07:07:42.977Z,93902.06
2022-09-17T07:08:39.746Z,93854.03
2022-09-17T07:09:36.467Z,93773.31
2022-09-17T07:10:33.149Z,93894.25
2022-09-17T07:11:31.582Z,93865.16
2022-09-17T07:12:28.373Z,93894.34
2022-09-17T07:13:26.054Z,93834.88
2022-09-17T07:14:24.714Z,93870.78
2022-09-17T07:15:22.052Z,93860.28
2022-09-17T07:16:19.730Z,93866.25
2022-09-17T07:17:16.564Z,93862.13
2022-09-17T07:18:13.367Z,93870.91
2022-09-17T07:19:11.154Z,93863.63
2022-09-17T07:20:08.793Z,93706.22
2022-09-17T07:21:07.136Z,93833.78
2022-09-17T07:22:03.988Z,93784.22
2022-09-17T07:23:00.863Z,93828.66
2022-09-17T07:23:58.185Z,93828.44
2022-09-17T07:24:54.853Z,93848.38
2022-09-17T07:25:53.697Z,93843.66
2022-09-17T07:26:51.647Z,93843.22
2022-09-17T07:28:06.689Z,93886.81
2022-09-17T07:29:03.568Z,93848.34
2022-09-17T07:30:00.283Z,93877.50
2022-09-17T07:30:57.442Z,93734.56
2022-09-17T07:31:55.024Z,93840.28
2022-09-17T07:32:52.212Z,93786.22
2022-09-17T07:33:48.954Z,93855.97
2022-09-17T07:34:45.665Z,93842.81
2022-09-17T07:35:42.648Z,93858.28
2022-09-17T07:36:39.443Z,93801.53
2022-09-17T07:37:36.132Z,93853.75
2022-09-17T07:38:34.172Z,93813.91
2022-09-17T07:39:30.950Z,93851.47
2022-09-17T07:40:27.880Z,93851.34
2022-09-17T07:41:24.786Z,93854.22
2022-09-17T07:42:21.597Z,93845.25
2022-09-17T07:43:18.260Z,93855.16
2022-09-17T07:44:14.947Z,93760.59
2022-09-17T07:45:11.687Z,93853.78
2022-09-17T07:46:17.939Z,93845.28
2022-09-17T07:47:14.860Z,93864.81
2022-09-17T07:48:11.830Z,93779.47
2022-09-17T07:49:08.556Z,93799.84
2022-09-17T07:50:08.765Z,93843.47
2022-09-17T07:51:05.684Z,93867.34
2022-09-17T07:52:06.311Z,93853.72
2022-09-17T07:53:04.237Z,93804.97
2022-09-17T07:54:02.371Z,93803.09
2022-09-17T07:54:59.117Z,93857.44
2022-09-17T07:55:58.267Z,93853.84
2022-09-17T07:56:55.080Z,93749.16
2022-09-17T07:57:52.462Z,93768.16
2022-09-17T07:58:49.776Z,93864.84
2022-09-17T07:59:46.612Z,93840.50
2022-09-17T08:00:43.916Z,93840.50
2022-09-17T08:01:40.897Z,93863.84
2022-09-17T08:02:37.838Z,93828.66
2022-09-17T08:03:35.599Z,93703.88
2022-09-17T08:04:32.330Z,93848.22
2022-09-17T08:05:29.004Z,93844.78
2022-09-17T08:06:28.250Z,93843.63
2022-09-17T08:07:25.114Z,93834.19
2022-09-17T08:08:21.785Z,93844.38
2022-09-17T08:09:18.696Z,93691.25
2022-09-17T08:10:15.439Z,93669.22
2022-09-17T08:11:23.715Z,93839.25
2022-09-17T08:12:29.397Z,93813.81
2022-09-17T08:13:26.077Z,93839.63
2022-09-17T08:14:27.029Z,93840.34
2022-09-17T08:15:26.589Z,93801.13
2022-09-17T08:16:25.014Z,93753.34
2022-09-17T08:17:21.739Z,93814.97
2022-09-17T08:18:18.587Z,93811.06
2022-09-17T08:19:15.361Z,93844.78
2022-09-17T08:20:13.672Z,93693.63
2022-09-17T08:21:13.801Z,93844.47
2022-09-17T08:22:10.533Z,93835.94
2022-09-17T08:23:07.231Z,93549.69
2022-09-17T08:24:04.340Z,93740.34
2022-09-17T08:25:01.237Z,93707.34
2022-09-17T08:26:00.494Z,93852.00
2022-09-17T08:26:57.236Z,93835.81
2022-09-17T08:27:55.750Z,93794.56
2022-09-17T08:28:56.356Z,93852.84
2022-09-17T08:29:53.074Z,93852.22
2022-09-17T08:30:50.489Z,93839.72
2022-09-17T08:31:47.326Z,93809.75
2022-09-17T08:32:44.118Z,93726.19
2022-09-17T08:33:42.109Z,93843.69
2022-09-17T08:34:38.860Z,93804.38
2022-09-17T08:35:35.559Z,93838.16
2022-09-17T08:36:32.289Z,93837.66
2022-09-17T08:37:31.964Z,93814.88
2022-09-17T08:38:32.540Z,93848.22
2022-09-17T08:39:32.454Z,93739.16
2022-09-17T08:40:29.754Z,93853.00
2022-09-17T08:41:53.927Z,93840.78
2022-09-17T08:43:00.293Z,93843.97
2022-09-17T08:44:27.624Z,93839.66
2022-09-17T08:45:25.946Z,93848.88
2022-09-17T08:46:25.672Z,93713.31
2022-09-17T08:47:33.603Z,93827.09
2022-09-17T08:48:41.831Z,93821.13
2022-09-17T08:49:57.474Z,93697.53
2022-09-17T08:50:58.680Z,93848.59
2022-09-17T08:52:30.119Z,93802.34
2022-09-17T08:53:58.895Z,93771.41
2022-09-17T08:55:16.724Z,93846.38
2022-09-17T08:56:18.810Z,93792.66
2022-09-17T08:57:46.718Z,93833.06
2022-09-17T08:59:21.537Z,93710.75
2022-09-17T09:00:24.528Z,93851.16
2022-09-17T09:01:23.991Z,93836.91
2022-09-17T09:02:20.827Z,93822.63
2022-09-17T09:03:20.703Z,93837.53
2022-09-17T09:04:34.018Z,93843.50
2022-09-17T09:05:44.283Z,93831.88
2022-09-17T09:06:55.677Z,93840.69
2022-09-17T09:08:04.034Z,93859.41
2022-09-17T09:09:06.848Z,93850.66
2022-09-17T09:10:04.322Z,93828.81
2022-09-17T09:11:05.683Z,93834.97
2022-09-17T09:12:14.882Z,93824.44
2022-09-17T09:13:18.633Z,93681.03
2022-09-17T09:14:27.900Z,93721.38
2022-09-17T09:15:33.327Z,93839.13
2022-09-17T09:16:37.559Z,93855.25
2022-09-17T09:17:47.003Z,93692.84
2022-09-17T09:18:43.797Z,93859.53
2022-09-17T09:19:46.253Z,93847.16
2022-09-17T09:21:09.621Z,93806.59
2022-09-17T09:22:26.185Z,93844.28
2022-09-17T09:23:40.775Z,93852.28
2022-09-17T09:24:55.694Z,93856.25
2022-09-17T09:26:00.265Z,93867.59
2022-09-17T09:27:15.255Z,93860.75
2022-09-17T09:28:57.387Z,93875.25
2022-09-17T09:30:15.597Z,93844.66
2022-09-17T09:31:34.009Z,93882.19
2022-09-17T09:33:06.183Z,93886.59
2022-09-17T09:34:04.987Z,93856.81
2022-09-17T09:35:14.108Z,93803.25
2022-09-17T09:36:15.804Z,93794.16
2022-09-17T09:37:21.960Z,93754.03
2022-09-17T09:38:33.908Z,93812.63
2022-09-17T09:39:40.331Z,93782.75
2022-09-17T09:40:54.408Z,93757.56
2022-09-17T09:42:19.397Z,93922.13
2022-09-17T09:43:32.771Z,93913.63
2022-09-17T09:44:42.655Z,93842.00
2022-09-17T09:46:08.317Z,93919.03
2022-09-17T09:47:30.285Z,93920.00
2022-09-17T09:48:57.297Z,93680.13
2022-09-17T09:50:05.691Z,93937.88
2022-09-17T09:51:22.470Z,93904.53
2022-09-17T09:52:34.246Z,93921.16
2022-09-17T09:54:01.812Z,93934.13
2022-09-17T09:55:13.415Z,93925.78
2022-09-17T09:56:25.737Z,93916.03
2022-09-17T09:57:50.345Z,93878.69
2022-09-17T09:58:47.567Z,93772.44
2022-09-17T09:59:44.256Z,93749.72
2022-09-17T10:00:45.071Z,93895.06
2022-09-17T10:01:45.409Z,93866.31
2022-09-17T10:02:42.585Z,93750.63
2022-09-17T10:03:42.106Z,93808.69
2022-09-17T10:04:38.767Z,93878.78
2022-09-17T10:05:35.862Z,93859.06
2022-09-17T10:06:32.749Z,93841.81
2022-09-17T10:07:29.449Z,93833.03
2022-09-17T10:08:28.083Z,93832.59
2022-09-17T10:09:24.828Z,93662.94
2022-09-17T10:10:21.617Z,93821.16
2022-09-17T10:11:27.385Z,93806.66
2022-09-17T10:12:24.124Z,93789.25
2022-09-17T10:13:21.053Z,93798.53
2022-09-17T10:14:27.082Z,93803.50
2022-09-17T10:15:25.237Z,93789.06
2022-09-17T10:16:25.082Z,93773.94
2022-09-17T10:17:23.329Z,93762.34
2022-09-17T10:18:23.349Z,93736.84
2022-09-17T10:19:27.851Z,93706.41
2022-09-17T10:20:24.668Z,93753.34
2022-09-17T10:21:30.734Z,93741.13
2022-09-17T10:22:40.961Z,93743.38
2022-09-17T10:23:43.816Z,93759.81
2022-09-17T10:24:40.604Z,93756.25
2022-09-17T10:25:46.198Z,93763.94
2022-09-17T10:26:42.978Z,93754.88
2022-09-17T10:27:47.067Z,93762.69
2022-09-17T10:28:51.349Z,93756.25
2022-09-17T10:30:02.179Z,93786.09
2022-09-17T10:31:09.141Z,93779.38
2022-09-17T10:32:07.045Z,93802.91
2022-09-17T10:33:18.172Z,93795.00
2022-09-17T10:34:26.909Z,93655.63
2022-09-17T10:35:28.253Z,93821.09
2022-09-17T10:36:39.532Z,93822.78
2022-09-17T10:37:44.864Z,93836.91
2022-09-17T10:38:46.155Z,93807.66
2022-09-17T10:39:46.632Z,93748.53
2022-09-17T10:40:43.279Z,93774.03
2022-09-17T10:42:00.589Z,93597.53
2022-09-17T10:43:17.863Z,93790.53
2022-09-17T10:44:18.968Z,93773.63
2022-09-17T10:45:26.745Z,93801.31
2022-09-17T10:46:30.474Z,93663.75
2022-09-17T10:47:36.326Z,93659.59
2022-09-17T10:48:43.443Z,93777.09
2022-09-17T10:49:46.770Z,93778.06
2022-09-17T10:50:58.008Z,93757.03
2022-09-17T10:52:20.057Z,93788.38
2022-09-17T10:53:20.025Z,93784.22
2022-09-17T10:54:34.076Z,93763.31
2022-09-17T10:55:38.388Z,93751.88
2022-09-17T10:56:37.703Z,93782.72
2022-09-17T10:57:54.578Z,93779.66
2022-09-17T10:59:11.679Z,93779.28
2022-09-17T11:00:16.061Z,93772.84
2022-09-17T11:01:30.679Z,93773.25
2022-09-17T11:02:41.213Z,93787.06
2022-09-17T11:03:59.874Z,93783.91
2022-09-17T11:05:11.770Z,93796.19
2022-09-17T11:06:43.803Z,93802.78
2022-09-17T11:07:58.341Z,93800.97
2022-09-17T11:09:03.821Z,93805.47
2022-09-17T11:10:21.380Z,93812.34
2022-09-17T11:11:40.419Z,93795.94
2022-09-17T11:12:43.047Z,93796.03
2022-09-17T11:14:05.321Z,93807.16
2022-09-17T11:15:19.966Z,93812.88
2022-09-17T11:17:02.331Z,93794.53
2022-09-17T11:18:13.814Z,93799.78
2022-09-17T11:19:23.102Z,93785.53
2022-09-17T11:20:31.800Z,93786.69
2022-09-17T11:21:57.016Z,93787.50
2022-09-17T11:23:15.351Z,93793.66
2022-09-17T11:24:33.822Z,93782.88
2022-09-17T11:25:59.745Z,93813.63
2022-09-17T11:27:25.355Z,93797.38
2022-09-17T11:28:27.792Z,93796.84
2022-09-17T11:29:49.458Z,93781.81
2022-09-17T11:31:24.837Z,93789.22
2022-09-17T11:32:50.665Z,93784.31
2022-09-17T11:34:25.200Z,93788.00
2022-09-17T11:35:36.765Z,93760.94
2022-09-17T11:37:01.626Z,93677.81
2022-09-17T11:38:14.323Z,93783.50
2022-09-17T11:39:19.015Z,93752.13
2022-09-17T11:40:38.146Z,93779.78
2022-09-17T11:41:42.585Z,93796.38
2022-09-17T11:42:59.336Z,93730.13
2022-09-17T11:44:10.430Z,93796.03
2022-09-17T11:45:19.127Z,93790.03
2022-09-17T11:46:27.703Z,93786.53
2022-09-17T11:47:36.697Z,93629.81
2022-09-17T11:48:42.234Z,93785.41
2022-09-17T11:49:57.698Z,93767.50
2022-09-17T11:51:14.930Z,93741.97
2022-09-17T11:52:20.359Z,93765.00
2022-09-17T11:53:34.932Z,93761.78
2022-09-17T11:54:52.841Z,93627.53
2022-09-17T11:56:20.408Z,93762.81
2022-09-17T11:57:22.727Z,93705.28
2022-09-17T11:58:31.566Z,93749.16
2022-09-17T11:59:53.499Z,93753.16
2022-09-17T12:01:01.196Z,93763.41
2022-09-17T12:02:26.878Z,93758.78
2022-09-17T12:03:43.608Z,93766.44
2022-09-17T12:05:02.322Z,93743.22
2022-09-17T12:06:10.093Z,93765.16
2022-09-17T12:07:45.327Z,93688.75
2022-09-17T12:08:55.619Z,93751.38
2022-09-17T12:10:00.565Z,93744.19
2022-09-17T12:10:57.377Z,93742.69
2022-09-17T12:12:31.754Z,93745.28
2022-09-17T12:13:45.928Z,93730.44
2022-09-17T12:15:05.521Z,93741.28
2022-09-17T12:16:14.439Z,93709.69
2022-09-17T12:17:21.930Z,93755.63
2022-09-17T12:18:36.397Z,93751.81
2022-09-17T12:19:43.139Z,93712.94